Time;durP1;ratioP1;P1;durP2;ratioP2;P2;SDS_P1;SDS_P2;PMS_P1;PMS_P2;Temp;Humidity;BMP_temperature;BMP_pressure;BME280_temperature;BME280_humidity;BME280_pressure;Samples;Min_cycle;Max_cycle;Signal;HPM_P1;HPM_P2
2023/01/16 00:08:50;;;;;;;2.20;1.00;;;1.00;99.90;;;;;;21025273;28;20021;-78
2023/01/16 00:18:51;;;;;;;4.88;1.20;;;1.30;99.90;;;;;;21033168;28;20024;-81
2023/01/16 00:28:52;;;;;;;3.25;1.00;;;1.30;99.90;;;;;;21027746;28;20029;-79
2023/01/16 00:38:54;;;;;;;4.35;0.80;;;1.50;99.90;;;;;;20989617;28;20063;-81
2023/01/16 00:48:56;;;;;;;6.88;3.38;;;1.80;99.90;;;;;;21029981;28;20041;-81
2023/01/16 00:58:57;;;;;;;3.60;1.80;;;1.60;99.90;;;;;;21027735;28;20028;-79
2023/01/16 01:08:58;;;;;;;4.55;1.13;;;1.60;99.90;;;;;;21033844;28;20056;-81
2023/01/16 01:18:58;;;;;;;2.90;1.17;;;1.70;99.90;;;;;;21025933;28;20503;-80
2023/01/16 01:28:59;;;;;;;3.17;1.70;;;2.10;99.90;;;;;;21022483;28;20028;-80
2023/01/16 01:39:00;;;;;;;3.95;1.20;;;1.70;99.90;;;;;;21021274;28;20032;-80
2023/01/16 01:49:16;;;;;;;2.20;1.35;;;1.60;99.90;;;;;;21018480;28;20060;-78
2023/01/16 01:59:28;;;;;;;1.15;0.80;;;1.70;99.90;;;;;;21021757;28;20450;-79
2023/01/16 02:09:29;;;;;;;1.38;0.85;;;1.70;99.90;;;;;;20995750;28;20033;-79
2023/01/16 02:20:07;;;;;;;9.35;1.58;;;1.70;99.90;;;;;;20937487;28;20048;-79
2023/01/16 02:30:46;;;;;;;6.38;1.13;;;1.70;99.90;;;;;;20963758;28;20024;-79
2023/01/16 02:41:04;;;;;;;1.35;0.93;;;1.70;99.90;;;;;;21004981;28;20037;-81
2023/01/16 02:51:10;;;;;;;3.80;0.98;;;1.70;99.90;;;;;;21026474;28;20111;-79
2023/01/16 03:01:13;;;;;;;2.65;1.40;;;1.70;99.90;;;;;;21043579;28;20396;-81
2023/01/16 03:11:22;;;;;;;1.45;1.20;;;1.80;99.90;;;;;;21034431;28;20032;-79
2023/01/16 03:21:41;;;;;;;3.38;1.55;;;1.70;99.90;;;;;;21036441;28;20545;-81
2023/01/16 03:31:58;;;;;;;4.78;2.03;;;1.70;99.90;;;;;;21036581;28;20025;-81
2023/01/16 03:42:05;;;;;;;3.85;1.92;;;1.60;99.90;;;;;;21028326;28;20414;-81
2023/01/16 03:52:11;;;;;;;4.32;1.80;;;1.40;99.90;;;;;;21026696;28;20032;-79
2023/01/16 04:02:26;;;;;;;3.63;2.05;;;1.10;99.90;;;;;;21030794;28;20031;-81
2023/01/16 04:12:37;;;;;;;2.85;1.95;;;0.90;99.90;;;;;;21025698;28;20024;-81
2023/01/16 04:22:39;;;;;;;6.57;1.80;;;1.20;99.90;;;;;;21024815;28;20777;-80
2023/01/16 04:32:39;;;;;;;4.22;2.03;;;1.20;99.90;;;;;;21053524;28;20039;-78
2023/01/16 04:42:40;;;;;;;2.20;1.88;;;1.40;99.90;;;;;;21039596;28;20382;-79
2023/01/16 04:52:41;;;;;;;3.55;2.00;;;1.30;99.90;;;;;;21012837;28;20025;-79
2023/01/16 05:02:42;;;;;;;2.25;1.70;;;1.10;99.90;;;;;;21022008;28;20032;-80
2023/01/16 05:12:43;;;;;;;3.33;2.15;;;1.00;99.90;;;;;;21039957;28;20073;-79
2023/01/16 05:22:44;;;;;;;5.00;2.10;;;1.00;99.90;;;;;;21090150;28;20032;-79
2023/01/16 05:32:45;;;;;;;4.28;2.20;;;0.70;99.90;;;;;;21049424;28;20114;-79
2023/01/16 05:42:47;;;;;;;4.82;2.70;;;0.60;99.90;;;;;;20987916;28;20029;-78
2023/01/16 05:52:48;;;;;;;5.90;2.35;;;0.60;99.90;;;;;;21001584;28;20054;-77
2023/01/16 06:02:49;;;;;;;5.72;2.45;;;0.50;99.90;;;;;;21004029;28;20036;-78
2023/01/16 06:12:50;;;;;;;3.85;2.38;;;0.50;99.90;;;;;;21000584;28;20417;-78
2023/01/16 06:22:54;;;;;;;3.97;2.42;;;0.40;99.90;;;;;;20998326;28;20478;-77
2023/01/16 06:32:55;;;;;;;5.22;3.22;;;0.40;99.90;;;;;;21009041;28;20032;-78
2023/01/16 06:42:55;;;;;;;4.78;2.53;;;0.40;99.90;;;;;;21025445;28;20081;-78
2023/01/16 06:52:56;;;;;;;5.88;2.13;;;0.40;99.90;;;;;;21016983;28;20025;-76
2023/01/16 07:02:57;;;;;;;5.07;2.40;;;0.50;99.90;;;;;;21015064;28;20029;-78
2023/01/16 07:13:01;;;;;;;5.45;2.70;;;0.50;99.90;;;;;;21013096;28;20032;-78
2023/01/16 07:23:15;;;;;;;5.32;2.38;;;0.60;99.90;;;;;;21012432;28;20032;-77
2023/01/16 07:33:16;;;;;;;5.22;2.80;;;0.50;99.90;;;;;;21017190;28;20029;-76
2023/01/16 07:43:17;;;;;;;4.20;2.83;;;0.50;99.90;;;;;;21012982;28;20409;-78
2023/01/16 07:53:21;;;;;;;3.22;2.20;;;0.70;99.90;;;;;;21010774;28;20158;-78
2023/01/16 08:03:23;;;;;;;4.32;1.85;;;0.80;99.90;;;;;;21009627;28;20545;-77
2023/01/16 08:13:24;;;;;;;8.65;2.28;;;0.90;99.90;;;;;;21008928;28;20028;-78
2023/01/16 08:23:25;;;;;;;9.32;4.18;;;0.80;99.90;;;;;;21008736;28;20050;-77
2023/01/16 08:33:26;;;;;;;7.95;4.28;;;0.70;99.90;;;;;;21006480;28;20032;-78
2023/01/16 08:53:45;;;;;;;6.55;4.13;;;0.70;99.90;;;;;;21004504;28;20029;-78
2023/01/16 09:03:46;;;;;;;4.78;2.83;;;0.80;99.90;;;;;;21010651;28;20086;-78
2023/01/16 09:13:50;;;;;;;5.57;3.70;;;1.00;99.90;;;;;;21004935;28;20131;-78
2023/01/16 09:23:52;;;;;;;6.53;3.92;;;0.90;99.90;;;;;;21009360;28;20032;-78
2023/01/16 09:33:54;;;;;;;4.20;2.95;;;0.80;99.90;;;;;;21011581;28;20543;-76
2023/01/16 09:43:55;;;;;;;8.15;3.63;;;0.80;99.90;;;;;;21004359;28;20115;-76
2023/01/16 10:04:36;;;;;;;8.63;3.75;;;0.90;99.90;;;;;;21003894;28;20614;-78
2023/01/16 10:14:43;;;;;;;12.35;3.33;;;0.80;99.90;;;;;;21013359;28;20028;-78
2023/01/16 10:24:56;;;;;;;8.50;4.47;;;0.90;99.90;;;;;;21002984;28;20531;-79
2023/01/16 10:35:05;;;;;;;9.00;5.20;;;0.80;99.90;;;;;;21030453;28;20054;-78
2023/01/16 10:55:46;;;;;;;8.75;3.55;;;1.10;99.90;;;;;;21001055;28;20551;-77
2023/01/16 11:05:47;;;;;;;5.38;3.25;;;1.50;99.90;;;;;;20999501;28;20436;-78
2023/01/16 11:26:35;;;;;;;9.20;3.13;;;2.20;99.90;;;;;;21021185;28;20054;-76
2023/01/16 11:36:37;;;;;;;8.35;4.55;;;2.30;99.90;;;;;;21015301;28;20150;-78
2023/01/16 11:46:42;;;;;;;35.42;13.93;;;2.50;99.90;;;;;;20993356;28;20025;-78
2023/01/16 11:56:50;;;;;;;13.82;5.90;;;3.30;99.90;;;;;;20991573;28;20109;-78
2023/01/16 12:06:54;;;;;;;9.90;5.05;;;3.50;99.90;;;;;;21004929;28;20039;-78
2023/01/16 12:17:23;;;;;;;2.00;1.40;;;3.60;99.90;;;;;;21014221;28;20029;-79
2023/01/16 12:27:49;;;;;;;0.63;0.57;;;3.90;99.90;;;;;;21006569;28;20029;-78
2023/01/16 12:38:28;;;;;;;0.82;0.57;;;4.50;99.90;;;;;;21001845;28;20056;-79
2023/01/16 12:48:29;;;;;;;0.50;0.50;;;4.70;99.90;;;;;;20962941;28;20056;-78
2023/01/16 12:58:36;;;;;;;0.43;0.40;;;5.00;99.90;;;;;;21011896;28;20119;-78
2023/01/16 13:08:46;;;;;;;0.50;0.50;;;5.30;99.90;;;;;;20994154;28;20064;-78
2023/01/16 13:18:55;;;;;;;1.00;0.30;;;5.60;99.90;;;;;;20977160;28;20033;-77
2023/01/16 13:29:24;;;;;;;0.95;0.43;;;5.80;99.90;;;;;;20976367;28;20028;-77
2023/01/16 13:40:02;;;;;;;0.40;0.40;;;5.50;99.90;;;;;;20999575;28;20040;-78
2023/01/16 13:50:14;;;;;;;0.65;0.50;;;5.60;99.90;;;;;;20984262;28;20025;-76
2023/01/16 14:00:19;;;;;;;2.38;0.43;;;5.40;99.90;;;;;;20995978;28;20036;-77
2023/01/16 14:10:24;;;;;;;0.30;0.30;;;5.40;99.90;;;;;;21002769;28;20487;-79
2023/01/16 14:20:47;;;;;;;2.15;0.40;;;5.50;99.90;;;;;;20996569;28;20036;-79
2023/01/16 14:30:48;;;;;;;0.65;0.50;;;5.70;99.90;;;;;;20996926;28;20032;-77
2023/01/16 15:02:33;;;;;;;0.30;0.30;;;5.90;99.90;;;;;;21016205;28;20398;-78
2023/01/16 15:12:39;;;;;;;0.95;0.40;;;6.00;99.90;;;;;;20974275;28;20041;-77
2023/01/16 15:22:44;;;;;;;1.25;0.60;;;6.30;99.90;;;;;;21004002;28;20040;-77
2023/01/16 15:53:46;;;;;;;2.20;0.50;;;6.30;99.90;;;;;;21004564;28;20088;-78
2023/01/16 16:03:49;;;;;;;2.20;0.30;;;6.20;99.90;;;;;;21012375;28;20025;-78
2023/01/16 16:13:50;;;;;;;0.57;0.40;;;6.20;99.90;;;;;;21011210;28;20028;-78
2023/01/16 16:24:00;;;;;;;2.15;0.45;;;6.10;99.90;;;;;;20995158;28;20039;-77
2023/01/16 16:34:14;;;;;;;0.45;0.30;;;5.10;99.90;;;;;;21012232;28;20032;-76
2023/01/16 16:44:23;;;;;;;1.02;0.50;;;4.40;99.90;;;;;;20994703;28;20032;-76
2023/01/16 16:54:27;;;;;;;0.55;0.40;;;4.20;99.90;;;;;;20994474;28;20044;-78
2023/01/16 17:04:29;;;;;;;1.95;0.30;;;4.40;99.90;;;;;;20978904;28;20052;-75
2023/01/16 17:14:30;;;;;;;2.70;0.70;;;4.50;99.90;;;;;;21027267;28;20039;-77
2023/01/16 17:24:31;;;;;;;2.72;0.98;;;4.60;99.90;;;;;;20998323;28;20032;-78
2023/01/16 17:34:33;;;;;;;1.63;0.60;;;4.60;99.90;;;;;;20999419;28;20084;-78
2023/01/16 18:05:12;;;;;;;4.22;0.70;;;4.90;99.90;;;;;;21029087;28;20143;-76
2023/01/16 18:25:32;;;;;;;1.35;0.47;;;4.90;99.90;;;;;;21011854;28;20115;-78
2023/01/16 18:35:35;;;;;;;2.33;0.70;;;5.00;99.90;;;;;;21021242;28;20105;-78
2023/01/16 19:06:15;;;;;;;0.75;0.52;;;4.90;99.90;;;;;;21010024;28;20024;-79
2023/01/16 19:26:41;;;;;;;0.40;0.40;;;3.40;99.90;;;;;;21030581;28;20122;-78
2023/01/16 19:36:42;;;;;;;1.17;0.52;;;2.80;99.90;;;;;;21003628;28;20028;-78
2023/01/16 19:46:43;;;;;;;1.95;0.40;;;2.20;99.90;;;;;;21009157;28;20559;-78
2023/01/16 19:56:44;;;;;;;1.02;0.60;;;2.00;99.90;;;;;;20968759;28;20021;-77
2023/01/16 20:06:45;;;;;;;4.35;0.80;;;2.00;99.90;;;;;;20985558;28;20031;-79
2023/01/16 20:16:45;;;;;;;2.30;1.20;;;1.90;99.90;;;;;;21009284;28;20031;-79
2023/01/16 20:26:49;;;;;;;2.63;0.90;;;2.10;99.90;;;;;;21009221;28;20028;-79
2023/01/16 20:36:51;;;;;;;2.63;0.85;;;2.20;99.90;;;;;;21013413;28;20031;-79
2023/01/16 20:46:52;;;;;;;1.77;0.65;;;2.20;99.90;;;;;;20983205;28;20550;-78
2023/01/16 20:56:54;;;;;;;1.27;0.77;;;2.30;99.90;;;;;;21005421;28;20025;-78
2023/01/16 21:06:56;;;;;;;0.60;0.43;;;2.30;99.90;;;;;;21002441;28;20044;-79
2023/01/16 21:27:24;;;;;;;0.60;0.50;;;2.30;99.90;;;;;;20982896;28;20115;-79
2023/01/16 21:37:26;;;;;;;0.73;0.60;;;2.20;99.90;;;;;;21012528;28;20032;-80
2023/01/16 21:47:27;;;;;;;1.83;0.70;;;2.30;99.90;;;;;;21030176;28;20032;-79
2023/01/16 21:57:28;;;;;;;1.67;0.68;;;2.20;99.90;;;;;;21070853;28;20036;-80
2023/01/16 22:07:29;;;;;;;1.23;0.85;;;2.20;99.90;;;;;;21042771;28;20037;-80
2023/01/16 22:17:42;;;;;;;7.05;0.80;;;2.20;99.90;;;;;;21035095;28;20059;-78
2023/01/16 22:27:43;;;;;;;1.08;0.82;;;2.30;99.90;;;;;;21033788;28;20033;-80
2023/01/16 22:37:44;;;;;;;4.95;0.80;;;2.30;99.90;;;;;;21017857;28;20066;-79
2023/01/16 22:47:45;;;;;;;2.70;0.52;;;2.30;99.90;;;;;;21019354;28;20033;-80
2023/01/16 22:57:47;;;;;;;3.17;0.70;;;2.40;99.90;;;;;;21001347;28;20467;-78
2023/01/16 23:07:48;;;;;;;2.20;0.68;;;2.50;99.90;;;;;;21043303;28;20473;-79
2023/01/16 23:17:49;;;;;;;1.38;0.50;;;2.50;99.90;;;;;;21034011;28;20032;-79
2023/01/16 23:27:50;;;;;;;3.03;1.00;;;2.40;99.90;;;;;;21002723;28;20040;-80
2023/01/16 23:37:52;;;;;;;1.55;0.88;;;2.30;99.90;;;;;;21080078;28;20027;-80
2023/01/16 23:47:54;;;;;;;2.08;1.02;;;2.00;99.90;;;;;;21096888;28;20028;-79
2023/01/16 23:57:55;;;;;;;1.38;0.93;;;1.80;99.90;;;;;;21054677;28;20464;-80
